createdAt,value
2023-02-02T00:02:02.001Z,11.68
2023-02-02T00:04:32.729Z,0.73
2023-02-02T00:07:01.393Z,3.35
2023-02-02T00:09:33.121Z,2.53
2023-02-02T00:12:02.541Z,1.15
2023-02-02T00:14:32.039Z,1.05
2023-02-02T00:17:00.098Z,0.77
2023-02-02T00:19:31.600Z,0.88
2023-02-02T00:22:00.332Z,1.70
2023-02-02T00:24:28.603Z,1.33
2023-02-02T00:27:00.488Z,4.75
2023-02-02T00:29:31.174Z,4.03
2023-02-02T00:32:00.531Z,1.58
2023-02-02T00:34:28.554Z,0.65
2023-02-02T00:36:56.539Z,5.30
2023-02-02T00:39:26.470Z,1.13
2023-02-02T00:41:54.696Z,0.95
2023-02-02T00:44:40.293Z,1.13
2023-02-02T00:47:09.666Z,3.00
2023-02-02T00:49:37.743Z,2.07
2023-02-02T00:52:06.094Z,0.68
2023-02-02T00:54:34.112Z,4.87
2023-02-02T00:57:02.149Z,1.80
2023-02-02T00:59:30.141Z,2.30
2023-02-02T01:01:58.416Z,4.28
2023-02-02T01:04:27.807Z,2.33
2023-02-02T01:06:55.783Z,1.38
2023-02-02T01:09:23.788Z,0.68
2023-02-02T01:11:51.800Z,2.63
2023-02-02T01:14:19.845Z,4.35
2023-02-02T01:16:48.046Z,11.98
2023-02-02T01:19:16.986Z,3.60
2023-02-02T01:21:46.305Z,2.80
2023-02-02T01:24:14.415Z,2.30
2023-02-02T01:26:42.380Z,2.42
2023-02-02T01:29:10.360Z,2.40
2023-02-02T01:31:38.415Z,3.38
2023-02-02T01:34:06.464Z,1.08
2023-02-02T01:36:34.447Z,4.10
2023-02-02T01:39:03.854Z,8.77
2023-02-02T01:41:31.799Z,1.10
2023-02-02T01:44:01.463Z,6.23
2023-02-02T01:46:31.091Z,4.38
2023-02-02T01:49:03.585Z,4.28
2023-02-02T01:51:37.481Z,0.30
2023-02-02T01:54:09.829Z,4.10
2023-02-02T01:56:42.727Z,0.93
2023-02-02T01:59:11.512Z,3.20
2023-02-02T02:01:39.596Z,6.53
2023-02-02T02:04:07.668Z,3.30
2023-02-02T02:06:35.854Z,2.13
2023-02-02T02:09:06.611Z,1.90
2023-02-02T02:11:37.142Z,1.73
2023-02-02T02:14:24.788Z,0.80
2023-02-02T02:17:11.379Z,1.60
2023-02-02T02:20:28.206Z,1.83
2023-02-02T02:23:37.279Z,3.87
2023-02-02T02:26:37.534Z,0.50
2023-02-02T02:29:38.669Z,3.53
2023-02-02T02:32:19.924Z,0.83
2023-02-02T02:34:56.169Z,0.83
2023-02-02T02:37:33.823Z,0.57
2023-02-02T02:40:07.889Z,0.67
2023-02-02T02:42:40.070Z,3.30
2023-02-02T02:45:10.911Z,0.73
2023-02-02T02:47:42.233Z,2.90
2023-02-02T02:50:11.373Z,0.80
2023-02-02T02:52:41.000Z,3.17
2023-02-02T02:55:12.773Z,2.70
2023-02-02T02:57:58.806Z,3.67
2023-02-02T03:00:40.548Z,2.42
2023-02-02T03:03:26.036Z,2.87
2023-02-02T03:05:58.952Z,3.40
2023-02-02T03:08:33.539Z,2.90
2023-02-02T03:11:03.331Z,1.88
2023-02-02T03:13:32.617Z,2.40
2023-02-02T03:16:00.823Z,1.93
2023-02-02T03:18:32.457Z,2.00
2023-02-02T03:21:00.980Z,0.68
2023-02-02T03:23:29.296Z,4.80
2023-02-02T03:25:57.364Z,4.83
2023-02-02T03:28:26.336Z,0.70
2023-02-02T03:30:55.903Z,1.80
2023-02-02T03:33:24.434Z,1.23
2023-02-02T03:35:54.045Z,6.43
2023-02-02T03:38:22.059Z,2.95
2023-02-02T03:40:50.048Z,1.27
2023-02-02T03:43:22.275Z,4.10
2023-02-02T03:45:56.319Z,1.87
2023-02-02T03:48:24.317Z,1.08
2023-02-02T03:50:54.015Z,1.43
2023-02-02T03:53:22.150Z,1.40
2023-02-02T03:55:50.167Z,2.83
2023-02-02T03:58:18.529Z,5.15
2023-02-02T04:00:46.528Z,1.63
2023-02-02T04:03:14.471Z,7.60
2023-02-02T04:05:42.467Z,4.15
2023-02-02T04:08:11.757Z,5.47
2023-02-02T04:10:42.457Z,3.05
2023-02-02T04:13:10.372Z,1.80
2023-02-02T04:15:38.481Z,3.10
2023-02-02T04:18:06.519Z,8.50
2023-02-02T04:20:34.512Z,2.40
2023-02-02T04:23:02.544Z,2.50
2023-02-02T04:25:31.854Z,6.07
2023-02-02T04:27:59.832Z,3.55
2023-02-02T04:30:27.912Z,1.25
2023-02-02T04:32:56.353Z,5.47
2023-02-02T04:35:24.629Z,2.77
2023-02-02T04:37:52.744Z,1.20
2023-02-02T04:40:21.135Z,5.97
2023-02-02T04:42:50.465Z,3.88
2023-02-02T04:45:18.697Z,1.80
2023-02-02T04:47:46.661Z,3.20
2023-02-02T04:50:14.621Z,1.02
2023-02-02T04:52:42.603Z,2.95
2023-02-02T04:55:10.769Z,3.78
2023-02-02T04:57:38.719Z,2.83
2023-02-02T05:00:11.285Z,2.63
2023-02-02T05:02:40.234Z,2.15
2023-02-02T05:05:10.324Z,6.63
2023-02-02T05:07:40.110Z,2.13
2023-02-02T05:10:10.051Z,4.78
2023-02-02T05:12:38.017Z,8.07
2023-02-02T05:15:08.405Z,3.88
2023-02-02T05:17:36.375Z,1.25
2023-02-02T05:20:04.672Z,1.85
2023-02-02T05:22:32.666Z,1.75
2023-02-02T05:25:00.757Z,4.88
2023-02-02T05:27:28.722Z,2.15
2023-02-02T05:29:56.703Z,2.35
2023-02-02T05:32:26.328Z,6.25
2023-02-02T05:34:54.266Z,2.55
2023-02-02T05:37:22.340Z,2.45
2023-02-02T05:39:52.188Z,5.85
2023-02-02T05:42:20.277Z,5.13
2023-02-02T05:44:48.276Z,3.28
2023-02-02T05:47:16.244Z,1.08
2023-02-02T05:49:45.601Z,1.52
2023-02-02T05:52:18.744Z,2.75
2023-02-02T05:54:46.905Z,2.13
2023-02-02T05:57:14.980Z,5.13
2023-02-02T05:59:42.946Z,5.55
2023-02-02T06:02:10.926Z,1.35
2023-02-02T06:04:39.063Z,3.60
2023-02-02T06:07:08.484Z,4.95
2023-02-02T06:09:36.451Z,1.80
2023-02-02T06:12:04.775Z,3.40
2023-02-02T06:14:33.131Z,3.30
2023-02-02T06:17:01.256Z,16.33
2023-02-02T06:19:29.351Z,4.03
2023-02-02T06:21:57.342Z,7.05
2023-02-02T06:24:26.927Z,3.40
2023-02-02T06:26:55.087Z,2.38
2023-02-02T06:29:23.335Z,2.17
2023-02-02T06:31:51.618Z,2.55
2023-02-02T06:34:19.749Z,2.35
2023-02-02T06:36:47.808Z,4.50
2023-02-02T06:39:15.799Z,2.13
2023-02-02T06:41:46.663Z,2.90
2023-02-02T06:44:15.782Z,2.70
2023-02-02T06:46:44.145Z,1.75
2023-02-02T06:49:12.174Z,0.82
2023-02-02T06:51:40.469Z,1.38
2023-02-02T06:54:08.740Z,3.88
2023-02-02T06:56:36.917Z,3.07
2023-02-02T06:59:06.482Z,5.95
2023-02-02T07:01:34.727Z,2.53
2023-02-02T07:04:02.804Z,0.60
2023-02-02T07:06:31.032Z,5.13
2023-02-02T07:09:02.312Z,2.67
2023-02-02T07:11:33.379Z,1.17
2023-02-02T07:14:02.787Z,3.60
2023-02-02T07:16:33.005Z,0.57
2023-02-02T07:19:01.150Z,5.00
2023-02-02T07:21:35.343Z,1.77
2023-02-02T07:24:03.912Z,3.23
2023-02-02T07:26:32.001Z,0.57
2023-02-02T07:29:00.169Z,0.40
2023-02-02T07:31:29.208Z,5.95
2023-02-02T07:33:58.906Z,2.93
2023-02-02T07:36:27.231Z,0.40
2023-02-02T07:38:57.426Z,0.90
2023-02-02T07:41:26.180Z,1.13
2023-02-02T07:43:54.482Z,0.93
2023-02-02T07:46:22.561Z,2.33
2023-02-02T07:48:50.755Z,0.73
2023-02-02T07:51:20.583Z,0.93
2023-02-02T07:53:49.881Z,2.63
2023-02-02T07:56:20.093Z,7.70
2023-02-02T07:58:51.465Z,1.93
2023-02-02T08:01:20.487Z,0.50
2023-02-02T08:03:48.734Z,1.17
2023-02-02T08:06:21.046Z,0.97
2023-02-02T08:08:49.991Z,1.40
2023-02-02T08:11:20.074Z,0.77
2023-02-02T08:13:50.972Z,0.47
2023-02-02T08:16:19.656Z,0.73
2023-02-02T08:18:47.795Z,2.90
2023-02-02T08:21:16.169Z,2.13
2023-02-02T08:23:47.918Z,0.30
2023-02-02T08:26:18.357Z,0.27
2023-02-02T08:28:48.752Z,1.80
2023-02-02T08:31:18.908Z,1.60
2023-02-02T08:33:47.193Z,0.50
2023-02-02T08:36:16.036Z,0.23
2023-02-02T08:38:46.056Z,1.33
2023-02-02T08:41:16.437Z,0.57
2023-02-02T08:43:44.745Z,0.40
2023-02-02T08:46:14.900Z,5.33
2023-02-02T08:48:43.355Z,0.90
2023-02-02T08:51:14.701Z,0.43
2023-02-02T08:53:43.382Z,0.83
2023-02-02T08:56:14.755Z,0.40
2023-02-02T08:58:46.680Z,1.17
2023-02-02T09:01:16.342Z,0.67
2023-02-02T09:03:44.810Z,0.43
2023-02-02T09:06:14.672Z,1.20
2023-02-02T09:08:43.386Z,0.40
2023-02-02T09:11:15.858Z,4.30
2023-02-02T09:13:45.894Z,1.40
2023-02-02T09:16:15.842Z,0.93
2023-02-02T09:18:44.700Z,0.33
2023-02-02T09:21:15.509Z,0.63
2023-02-02T09:23:45.399Z,2.90
2023-02-02T09:26:16.809Z,1.13
2023-02-02T09:28:46.384Z,1.50
2023-02-02T09:31:15.105Z,0.70
2023-02-02T09:33:43.870Z,0.43
2023-02-02T09:36:13.719Z,1.07
2023-02-02T09:38:43.256Z,0.83
2023-02-02T09:41:40.515Z,4.70
2023-02-02T09:44:16.970Z,1.80
2023-02-02T09:46:57.193Z,0.70
2023-02-02T09:49:28.235Z,2.97
2023-02-02T09:52:00.629Z,3.13
2023-02-02T09:54:35.447Z,1.17
2023-02-02T09:57:13.253Z,0.83
2023-02-02T09:59:43.038Z,3.33
2023-02-02T10:02:18.817Z,5.93
2023-02-02T10:04:50.907Z,1.23
2023-02-02T10:07:22.586Z,1.13
2023-02-02T10:09:58.272Z,0.93
2023-02-02T10:12:35.349Z,1.43
2023-02-02T10:15:12.697Z,1.67
2023-02-02T10:17:46.644Z,0.93
2023-02-02T10:20:34.836Z,0.43
2023-02-02T10:23:14.007Z,2.45
2023-02-02T10:25:49.967Z,3.03
2023-02-02T10:28:21.518Z,5.93
2023-02-02T10:31:00.061Z,2.63
2023-02-02T10:33:37.023Z,1.73
2023-02-02T10:36:13.996Z,0.50
2023-02-02T10:38:53.142Z,1.10
2023-02-02T10:41:30.248Z,0.70
2023-02-02T10:44:28.993Z,0.77
2023-02-02T10:47:00.160Z,3.08
2023-02-02T10:49:32.111Z,5.70
2023-02-02T10:52:07.502Z,2.08
2023-02-02T10:54:57.727Z,1.02
2023-02-02T10:57:37.920Z,2.15
2023-02-02T11:00:17.027Z,2.40
2023-02-02T11:02:45.803Z,4.05
2023-02-02T11:05:40.394Z,1.33
2023-02-02T11:08:16.584Z,1.98
2023-02-02T11:10:46.459Z,0.93
2023-02-02T11:13:21.067Z,1.70
2023-02-02T11:15:50.752Z,2.67
2023-02-02T11:18:30.017Z,3.93
2023-02-02T11:20:58.836Z,0.60
2023-02-02T11:23:28.835Z,3.88
2023-02-02T11:26:01.853Z,2.55
2023-02-02T11:28:35.632Z,2.65
2023-02-02T11:31:05.507Z,0.50
2023-02-02T11:33:35.973Z,2.03
2023-02-02T11:36:06.236Z,0.93
2023-02-02T11:38:36.656Z,2.58
2023-02-02T11:41:09.211Z,3.10
2023-02-02T11:43:41.663Z,0.88
2023-02-02T11:46:20.462Z,0.77
2023-02-02T11:48:55.240Z,1.13
2023-02-02T11:51:25.618Z,2.00
2023-02-02T11:54:04.659Z,2.47
2023-02-02T11:56:33.612Z,1.08
2023-02-02T11:59:03.962Z,3.72
2023-02-02T12:01:36.307Z,0.77
2023-02-02T12:04:24.418Z,1.88
2023-02-02T12:06:52.770Z,4.70
2023-02-02T12:09:23.294Z,8.68
2023-02-02T12:12:03.238Z,4.90
2023-02-02T12:14:38.501Z,2.67
2023-02-02T12:17:22.475Z,1.20
2023-02-02T12:20:28.707Z,2.35
2023-02-02T12:23:25.078Z,1.35
2023-02-02T12:26:20.849Z,2.83
2023-02-02T12:29:30.742Z,1.67
2023-02-02T12:32:18.052Z,1.25
2023-02-02T12:34:57.867Z,1.40
2023-02-02T12:37:42.758Z,1.00
2023-02-02T12:40:23.698Z,3.88
2023-02-02T12:43:07.678Z,0.98
2023-02-02T12:46:05.023Z,3.80
2023-02-02T12:48:52.031Z,31.05
2023-02-02T12:51:32.722Z,2.35
2023-02-02T12:54:34.743Z,0.82
2023-02-02T12:57:21.993Z,1.93
2023-02-02T13:00:17.807Z,1.70
2023-02-02T13:02:58.289Z,6.32
2023-02-02T13:05:44.198Z,2.80
2023-02-02T13:08:16.148Z,5.80
2023-02-02T13:10:48.636Z,4.45
2023-02-02T13:13:20.817Z,8.68
2023-02-02T13:15:51.150Z,0.98
2023-02-02T13:18:24.454Z,2.30
2023-02-02T13:20:57.570Z,1.20
2023-02-02T13:23:29.759Z,2.00
2023-02-02T13:26:02.702Z,2.45
2023-02-02T13:28:39.296Z,5.82
2023-02-02T13:31:14.991Z,1.95
2023-02-02T13:33:45.986Z,2.03
2023-02-02T13:36:25.831Z,3.30
2023-02-02T13:38:56.993Z,0.90
2023-02-02T13:41:25.754Z,1.63
2023-02-02T13:44:01.526Z,2.40
2023-02-02T13:46:38.189Z,1.25
2023-02-02T13:49:13.523Z,1.30
2023-02-02T13:52:15.813Z,2.22
2023-02-02T13:55:17.372Z,1.70
2023-02-02T13:58:16.874Z,1.40
2023-02-02T14:00:47.872Z,5.65
2023-02-02T14:03:29.988Z,0.83
2023-02-02T14:06:07.751Z,1.90
2023-02-02T14:08:38.024Z,3.33
2023-02-02T14:11:08.727Z,0.40
2023-02-02T14:14:02.551Z,2.27
2023-02-02T14:16:55.666Z,0.67
2023-02-02T14:19:50.588Z,2.83
2023-02-02T14:22:38.425Z,3.73
2023-02-02T14:25:41.456Z,2.17
2023-02-02T14:28:13.572Z,2.40
2023-02-02T14:30:41.804Z,1.57
2023-02-02T14:33:42.056Z,3.30
2023-02-02T14:36:16.923Z,3.43
2023-02-02T14:39:18.709Z,2.37
2023-02-02T14:42:30.087Z,4.73
2023-02-02T14:45:31.000Z,2.17
2023-02-02T14:48:01.444Z,3.27
2023-02-02T14:50:41.770Z,2.43
2023-02-02T14:53:22.204Z,1.47
2023-02-02T14:55:59.258Z,2.23
2023-02-02T14:58:32.288Z,2.20
2023-02-02T15:01:09.396Z,1.57
2023-02-02T15:03:49.810Z,5.27
2023-02-02T15:06:32.872Z,1.67
2023-02-02T15:09:36.814Z,2.03
2023-02-02T15:12:25.953Z,7.83
2023-02-02T15:15:03.382Z,1.70
2023-02-02T15:17:44.431Z,2.00
2023-02-02T15:20:21.213Z,1.40
2023-02-02T15:22:56.835Z,1.13
2023-02-02T15:25:31.599Z,1.10
2023-02-02T15:28:04.402Z,1.90
2023-02-02T15:30:38.003Z,1.60
2023-02-02T15:33:16.574Z,1.63
2023-02-02T15:35:44.993Z,3.37
2023-02-02T15:38:20.392Z,1.97
2023-02-02T15:40:48.900Z,1.77
2023-02-02T15:43:17.772Z,1.57
2023-02-02T15:45:49.106Z,1.57
2023-02-02T15:48:24.774Z,6.30
2023-02-02T15:50:55.931Z,1.13
2023-02-02T15:53:27.156Z,2.10
2023-02-02T15:55:56.611Z,1.47
2023-02-02T15:58:30.587Z,1.60
2023-02-02T16:01:02.010Z,1.97
2023-02-02T16:03:39.227Z,1.33
2023-02-02T16:06:08.818Z,1.30
2023-02-02T16:08:39.966Z,1.37
2023-02-02T16:11:13.200Z,1.87
2023-02-02T16:13:42.630Z,1.90
2023-02-02T16:16:24.624Z,3.87
2023-02-02T16:19:14.290Z,9.53
2023-02-02T16:21:53.472Z,6.17
2023-02-02T16:24:25.238Z,3.87
2023-02-02T16:26:55.507Z,2.87
2023-02-02T16:29:24.301Z,2.03
2023-02-02T16:31:52.604Z,2.87
2023-02-02T16:34:46.759Z,2.37
2023-02-02T16:37:17.022Z,2.93
2023-02-02T16:39:45.839Z,5.57
2023-02-02T16:42:26.014Z,2.73
2023-02-02T16:44:54.571Z,2.00
2023-02-02T16:47:39.884Z,2.07
2023-02-02T16:50:28.694Z,2.63
2023-02-02T16:53:03.014Z,1.50
2023-02-02T16:55:48.823Z,3.17
2023-02-02T16:58:21.851Z,4.17
2023-02-02T17:01:12.607Z,4.73
2023-02-02T17:03:48.870Z,2.17
2023-02-02T17:06:29.612Z,3.50
2023-02-02T17:09:15.709Z,2.07
2023-02-02T17:11:58.059Z,3.40
2023-02-02T17:14:30.939Z,3.50
2023-02-02T17:16:59.127Z,2.97
2023-02-02T17:19:30.568Z,2.03
2023-02-02T17:22:05.301Z,2.67
2023-02-02T17:24:34.782Z,2.90
2023-02-02T17:27:03.924Z,2.10
2023-02-02T17:29:32.130Z,2.17
2023-02-02T17:32:00.637Z,2.00
2023-02-02T17:34:30.769Z,2.17
2023-02-02T17:37:00.401Z,1.90
2023-02-02T17:39:28.517Z,4.10
2023-02-02T17:41:56.713Z,5.20
2023-02-02T17:44:25.670Z,3.80
2023-02-02T17:46:53.789Z,3.47
2023-02-02T17:49:22.691Z,3.20
2023-02-02T17:51:50.837Z,2.53
2023-02-02T17:54:20.303Z,3.87
2023-02-02T17:56:48.476Z,5.05
2023-02-02T17:59:16.772Z,2.08
2023-02-02T18:01:45.601Z,4.60
2023-02-02T18:04:15.584Z,2.80
2023-02-02T18:06:43.633Z,3.53
2023-02-02T18:09:11.812Z,7.88
2023-02-02T18:11:42.576Z,4.93
2023-02-02T18:14:11.032Z,3.23
2023-02-02T18:16:39.336Z,3.58
2023-02-02T18:19:07.517Z,5.75
2023-02-02T18:21:35.846Z,4.72
2023-02-02T18:24:04.112Z,7.32
2023-02-02T18:26:34.509Z,5.45
2023-02-02T18:29:04.107Z,8.20
2023-02-02T18:31:32.414Z,9.07
2023-02-02T18:34:00.541Z,8.70
2023-02-02T18:36:28.624Z,8.25
2023-02-02T18:38:58.001Z,8.32
2023-02-02T18:41:26.247Z,9.05
2023-02-02T18:43:55.829Z,9.02
2023-02-02T18:46:26.664Z,14.35
2023-02-02T18:48:56.165Z,10.75
2023-02-02T18:51:24.318Z,8.10
2023-02-02T18:53:55.044Z,9.52
2023-02-02T18:56:25.926Z,8.75
2023-02-02T18:58:54.609Z,11.50
2023-02-02T19:01:26.011Z,12.40
2023-02-02T19:03:57.024Z,11.55
2023-02-02T19:06:43.620Z,12.15
2023-02-02T19:09:13.722Z,11.20
2023-02-02T19:11:44.935Z,8.95
2023-02-02T19:14:15.811Z,9.60
2023-02-02T19:16:46.817Z,11.95
2023-02-02T19:19:23.102Z,8.88
2023-02-02T19:21:54.330Z,9.07
2023-02-02T19:24:22.640Z,7.85
2023-02-02T19:26:51.506Z,8.85
2023-02-02T19:29:22.587Z,8.07
2023-02-02T19:32:00.712Z,11.13
2023-02-02T19:34:29.181Z,8.27
2023-02-02T19:36:57.322Z,9.45
2023-02-02T19:39:31.549Z,8.45
2023-02-02T19:42:01.359Z,9.63
2023-02-02T19:44:34.164Z,8.02
2023-02-02T19:47:07.371Z,10.27
2023-02-02T19:49:37.967Z,6.10
2023-02-02T19:52:17.078Z,9.18
2023-02-02T19:54:48.076Z,9.57
2023-02-02T19:57:21.798Z,6.53
2023-02-02T19:59:52.567Z,8.20
2023-02-02T20:02:42.370Z,10.13
2023-02-02T20:05:19.490Z,9.27
2023-02-02T20:07:49.119Z,10.05
2023-02-02T20:10:22.231Z,6.55
2023-02-02T20:12:51.805Z,10.48
2023-02-02T20:15:32.273Z,9.98
2023-02-02T20:18:03.042Z,6.55
2023-02-02T20:20:35.868Z,9.02
2023-02-02T20:23:04.117Z,9.35
2023-02-02T20:25:33.320Z,6.97
2023-02-02T20:28:09.527Z,7.28
2023-02-02T20:30:37.806Z,6.05
2023-02-02T20:33:22.087Z,7.68
2023-02-02T20:35:50.736Z,6.07
2023-02-02T20:38:23.262Z,8.38
2023-02-02T20:40:52.569Z,7.82
2023-02-02T20:43:21.014Z,9.18
2023-02-02T20:45:50.046Z,8.32
2023-02-02T20:48:19.606Z,6.85
2023-02-02T20:50:47.908Z,7.38
2023-02-02T20:53:16.694Z,8.30
2023-02-02T20:55:45.140Z,8.85
2023-02-02T20:58:13.667Z,8.05
2023-02-02T21:00:42.176Z,9.63
2023-02-02T21:03:10.512Z,7.05
2023-02-02T21:05:40.296Z,9.27
2023-02-02T21:08:08.646Z,10.68
2023-02-02T21:10:36.956Z,12.00
2023-02-02T21:13:05.203Z,9.40
2023-02-02T21:15:33.522Z,7.70
2023-02-02T21:18:01.664Z,8.90
2023-02-02T21:20:29.945Z,7.32
2023-02-02T21:22:59.669Z,8.35
2023-02-02T21:25:27.847Z,8.43
2023-02-02T21:27:56.700Z,10.18
2023-02-02T21:30:25.016Z,9.57
2023-02-02T21:32:53.536Z,13.65
2023-02-02T21:35:21.772Z,7.45
2023-02-02T21:37:55.173Z,10.70
2023-02-02T21:40:29.648Z,7.53
2023-02-02T21:43:00.536Z,9.65
2023-02-02T21:45:35.145Z,10.45
2023-02-02T21:48:06.426Z,11.88
2023-02-02T21:50:36.984Z,10.07
2023-02-02T21:53:20.046Z,11.15
2023-02-02T21:55:53.456Z,9.88
2023-02-02T21:58:24.962Z,11.13
2023-02-02T22:00:53.860Z,12.23
2023-02-02T22:03:30.785Z,14.68
2023-02-02T22:06:19.793Z,11.07
2023-02-02T22:08:48.647Z,11.95
2023-02-02T22:11:29.382Z,11.90
2023-02-02T22:14:03.501Z,12.10
2023-02-02T22:16:39.390Z,10.40
2023-02-02T22:19:25.376Z,16.55
2023-02-02T22:21:54.205Z,11.43
2023-02-02T22:24:22.417Z,13.70
2023-02-02T22:26:51.829Z,11.55
2023-02-02T22:29:21.293Z,10.35
2023-02-02T22:31:49.400Z,17.85
2023-02-02T22:34:17.501Z,14.68
2023-02-02T22:36:45.536Z,16.42
2023-02-02T22:39:13.561Z,13.20
2023-02-02T22:41:41.600Z,11.88
2023-02-02T22:44:10.980Z,12.50
2023-02-02T22:46:39.084Z,20.73
2023-02-02T22:49:07.181Z,14.18
2023-02-02T22:51:35.168Z,13.55
2023-02-02T22:54:03.150Z,15.85
2023-02-02T22:56:31.971Z,15.35
2023-02-02T22:59:01.576Z,16.40
2023-02-02T23:01:31.112Z,12.30
2023-02-02T23:03:59.263Z,15.18
2023-02-02T23:06:27.459Z,15.57
2023-02-02T23:08:55.521Z,12.32
2023-02-02T23:11:23.526Z,16.35
2023-02-02T23:13:51.646Z,14.32
2023-02-02T23:16:19.774Z,14.02
2023-02-02T23:18:49.202Z,13.25
2023-02-02T23:21:17.465Z,20.55
2023-02-02T23:23:45.556Z,20.15
2023-02-02T23:26:13.707Z,18.50
2023-02-02T23:28:41.708Z,16.42
2023-02-02T23:31:09.854Z,14.77
2023-02-02T23:33:37.937Z,18.45
2023-02-02T23:36:08.245Z,13.65
2023-02-02T23:38:36.261Z,18.75
2023-02-02T23:41:04.385Z,16.63
2023-02-02T23:43:32.533Z,16.42
2023-02-02T23:46:00.697Z,17.85
2023-02-02T23:48:28.796Z,20.50
2023-02-02T23:50:57.335Z,12.35
2023-02-02T23:53:26.793Z,17.38
2023-02-02T23:55:55.662Z,15.93
2023-02-02T23:58:23.721Z,12.30
